Map

Track Data

SID SEASON NUMBER BASIN SUBBASIN NAME ISO_TIME NATURE LAT LON WMO_WIND WMO_PRES WMO_AGENCY TRACK_TYPE DIST2LAND LANDFALL IFLAG USA_AGENCY USA_ATCF_ID USA_LAT USA_LON USA_RECORD USA_STATUS USA_WIND USA_PRES USA_SSHS USA_R34_NE USA_R34_SE USA_R34_SW USA_R34_NW USA_R50_NE USA_R50_SE USA_R50_SW USA_R50_NW USA_R64_NE USA_R64_SE USA_R64_SW USA_R64_NW USA_POCI USA_ROCI USA_RMW USA_EYE TOKYO_LAT TOKYO_LON TOKYO_GRADE TOKYO_WIND TOKYO_PRES TOKYO_R50_DIR TOKYO_R50_LONG TOKYO_R50_SHORT TOKYO_R30_DIR TOKYO_R30_LONG TOKYO_R30_SHORT TOKYO_LAND CMA_LAT CMA_LON CMA_CAT CMA_WIND CMA_PRES HKO_LAT HKO_LON HKO_CAT HKO_WIND HKO_PRES NEWDELHI_LAT NEWDELHI_LON NEWDELHI_GRADE NEWDELHI_WIND NEWDELHI_PRES NEWDELHI_CI NEWDELHI_DP NEWDELHI_POCI REUNION_LAT REUNION_LON REUNION_TYPE REUNION_WIND REUNION_PRES REUNION_TNUM REUNION_CI REUNION_RMW REUNION_R34_NE REUNION_R34_SE REUNION_R34_SW REUNION_R34_NW REUNION_R50_NE REUNION_R50_SE REUNION_R50_SW REUNION_R50_NW REUNION_R64_NE REUNION_R64_SE REUNION_R64_SW REUNION_R64_NW BOM_LAT BOM_LON BOM_TYPE BOM_WIND BOM_PRES BOM_TNUM BOM_CI BOM_RMW BOM_R34_NE BOM_R34_SE BOM_R34_SW BOM_R34_NW BOM_R50_NE BOM_R50_SE BOM_R50_SW BOM_R50_NW BOM_R64_NE BOM_R64_SE BOM_R64_SW BOM_R64_NW BOM_ROCI BOM_POCI BOM_EYE BOM_POS_METHOD BOM_PRES_METHOD NADI_LAT NADI_LON NADI_CAT NADI_WIND NADI_PRES WELLINGTON_LAT WELLINGTON_LON WELLINGTON_WIND WELLINGTON_PRES DS824_LAT DS824_LON DS824_STAGE DS824_WIND DS824_PRES TD9636_LAT TD9636_LON TD9636_STAGE TD9636_WIND TD9636_PRES TD9635_LAT TD9635_LON TD9635_WIND TD9635_PRES TD9635_ROCI NEUMANN_LAT NEUMANN_LON NEUMANN_CLASS NEUMANN_WIND NEUMANN_PRES MLC_LAT MLC_LON MLC_CLASS MLC_WIND MLC_PRES USA_GUST BOM_GUST BOM_GUST_PER REUNION_GUST REUNION_GUST_PER USA_SEAHGT USA_SEARAD_NE USA_SEARAD_SE USA_SEARAD_SW USA_SEARAD_NW STORM_SPEED STORM_DIR
1920284N14134 1920 46 WP MM NOT_NAMED 1920-10-09 21:00:00 NR 13.5000 133.700 main 901 845 __________O___ -1 13.5000 133.700 2 22 320
1920284N14134 1920 46 WP MM NOT_NAMED 1920-10-10 00:00:00 NR 14.3327 132.972 main 845 803 __________P___ -1 14.3327 132.972 2 22 320
1920284N14134 1920 46 WP MM NOT_NAMED 1920-10-10 03:00:00 NR 15.1716 132.244 main 798 777 __________P___ -1 15.1716 132.244 2 22 320
1920284N14134 1920 46 WP MM NOT_NAMED 1920-10-10 06:00:00 NR 16.0245 131.518 main 774 764 __________P___ -1 16.0245 131.518 2 22 321
1920284N14134 1920 46 WP MM NOT_NAMED 1920-10-10 09:00:00 NR 16.9000 130.800 main 764 746 __________O___ -1 16.9000 130.800 2 22 323
1920284N14134 1920 46 WP MM NOT_NAMED 1920-10-10 12:00:00 NR 17.8051 130.100 main 749 747 __________P___ -1 17.8051 130.100 2 22 325
1920284N14134 1920 46 WP MM NOT_NAMED 1920-10-10 15:00:00 NR 18.7404 129.464 main 759 715 __________P___ -1 18.7404 129.464 2 22 330
1920284N14134 1920 46 WP MM NOT_NAMED 1920-10-10 18:00:00 NR 19.7054 128.945 main 708 700 __________P___ -1 19.7054 128.945 2 21 337
1920284N14134 1920 46 WP MM NOT_NAMED 1920-10-10 21:00:00 NR 20.7000 128.600 main 708 706 __________O___ -1 20.7000 128.600 2 21 346
1920284N14134 1920 46 WP MM NOT_NAMED 1920-10-11 00:00:00 NR 21.7632 128.382 main 729 678 __________P___ -1 21.7632 128.382 2 22 354
1920284N14134 1920 46 WP MM NOT_NAMED 1920-10-11 03:00:00 NR 22.8485 128.354 main 688 666 __________P___ -1 22.8485 128.354 2 22 3
1920284N14134 1920 46 WP MM NOT_NAMED 1920-10-11 06:00:00 NR 23.9097 128.525 main 668 666 __________P___ -1 23.9097 128.525 2 21 14
1920284N14134 1920 46 WP MM NOT_NAMED 1920-10-11 09:00:00 NR 24.9000 128.900 main 695 605 __________O___ -1 24.9000 128.900 2 21 24
1920284N14134 1920 46 WP MM NOT_NAMED 1920-10-11 12:00:00 NR 25.7713 129.451 main 592 504 __________P___ -1 25.7713 129.451 2 20 35
1920284N14134 1920 46 WP MM NOT_NAMED 1920-10-11 15:00:00 NR 26.5638 130.200 main 493 414 __________P___ -1 26.5638 130.200 2 21 44
1920284N14134 1920 46 WP MM NOT_NAMED 1920-10-11 18:00:00 NR 27.2992 131.075 main 414 354 __________P___ -1 27.2992 131.075 2 22 48
1920284N14134 1920 46 WP MM NOT_NAMED 1920-10-11 21:00:00 NR 28.0000 132.000 main 357 326 __________O___ -1 28.0000 132.000 2 21 48
1920284N14134 1920 46 WP MM NOT_NAMED 1920-10-12 00:00:00 NR 28.7234 132.870 main 332 311 __________P___ -1 28.7234 132.870 2 21 48
1920284N14134 1920 46 WP MM NOT_NAMED 1920-10-12 03:00:00 NR 29.4167 133.772 main 320 312 __________P___ -1 29.4167 133.772 2 21 50
1920284N14134 1920 46 WP MM NOT_NAMED 1920-10-12 06:00:00 NR 30.0765 134.689 main 331 302 __________P___ -1 30.0765 134.689 2 20 51
1920284N14134 1920 46 WP MM NOT_NAMED 1920-10-12 09:00:00 NR 30.7000 135.600 main 301 254 __________O___ -1 30.7000 135.600 2 19 54
1920284N14134 1920 46 WP MM NOT_NAMED 1920-10-12 12:00:00 NR 31.1993 136.501 main 254 235 __________P___ -1 31.1993 136.501 2 18 57
1920284N14134 1920 46 WP MM NOT_NAMED 1920-10-12 15:00:00 NR 31.6784 137.388 main 241 238 __________P___ -1 31.6784 137.388 2 18 56
1920284N14134 1920 46 WP MM NOT_NAMED 1920-10-12 18:00:00 NR 32.2182 138.255 main 265 191 __________P___ -1 32.2182 138.255 2 19 50
1920284N14134 1920 46 WP MM NOT_NAMED 1920-10-12 21:00:00 NR 32.9000 139.100 main 191 122 __________O___ -1 32.9000 139.100 2 22 42
1920284N14134 1920 46 WP MM NOT_NAMED 1920-10-13 00:00:00 NR 33.8124 139.991 main 122 57 __________P___ -1 33.8124 139.991 2 25 37
1920284N14134 1920 46 WP MM NOT_NAMED 1920-10-13 03:00:00 NR 34.8716 140.863 main 56 42 __________P___ -1 34.8716 140.863 2 26 32
1920284N14134 1920 46 WP MM NOT_NAMED 1920-10-13 06:00:00 NR 36.0196 141.679 main 79 79 __________P___ -1 36.0196 141.679 2 26 28
1920284N14134 1920 46 WP MM NOT_NAMED 1920-10-13 09:00:00 NR 37.2000 142.400 main 123 113 __________O___ -1 37.2000 142.400 2 26 24
1920284N14134 1920 46 WP MM NOT_NAMED 1920-10-13 12:00:00 NR 38.3680 142.994 main 123 111 __________P___ -1 38.3680 142.994 2 25 20
1920284N14134 1920 46 WP MM NOT_NAMED 1920-10-13 15:00:00 NR 39.5203 143.484 main 119 119 __________P___ -1 39.5203 143.484 2 24 17
1920284N14134 1920 46 WP MM NOT_NAMED 1920-10-13 18:00:00 NR 40.6629 143.906 main 145 86 __________P___ -1 40.6629 143.906 2 24 15
1920284N14134 1920 46 WP MM NOT_NAMED 1920-10-13 21:00:00 NR 41.8000 144.300 main 85 __________O___ -1 41.8000 144.300 2 24 14

Digital Typhoon Data and Search

About IBTrACS Database

This database is a web-friendly format of International Best Track Archive for Climate Stewardship (IBTrACS), a global best track data archive curated by NOAA dating back to 1842.

Updated: 2021-11-26